Terminal Aerodrome Forecast
Issued by NWS Mt. Holly, NJ

Home | Current Version | Previous Version | Text Only | Print | Product List | Glossary On
Versions: 1 2 3 4 5 6 7 8 9 10 11 12 13 14 15 16 17
946
FTUS41 KPHI 182324
TAFILG
TAF
KILG 182324Z 1900/1924 17010KT P6SM VCSH OVC070
      TEMPO 1901/1903 5SM SHRA OVC050
     FM190300 19014G24KT P6SM VCSH OVC050 WS020/21040KT
     FM190700 20017G27KT 4SM -SHRA SCT008 OVC015
     FM191100 24018G30KT P6SM VCSH OVC025
     FM191300 26020G35KT P6SM BKN035=

USA.gov is the U.S. government's official web portal to all federal, state and local government web resources and services.